• Join FlightAware (Why Join?)
  • Login
  • US Flag 
04:45PM EDT


 

Airport Tracker/Info


-or-


 

Live Flight TrackerFlight Track Log ✈ UAL1052 ✈ 09-Sep-2013 ✈ KEWR - KIAH

Flight Track Log - Related Links

Times and Time Zones

All times are in EDT time to prevent confusion due to time zone crossing. See the UAL1052 flight status page for this flight to view local times or setup timezone preferences in your user account.

Time Position Orientation Groundspeed Altitude Reporting Facility
EDT Latitude Longitude Course Direction KTS MPH feet Rate Location/Type
04:36PM 40.6630 -74.1850 187° South 167 192 900  Level FlightAware
04:36PM 40.6444 -74.1881 187° South 183 211 1,900 2,520 Climbing FlightAware ADS-B
04:36PM 40.6319 -74.1955 204° Southwest 197 227 2,300 2,280 Climbing FlightAware ADS-B
04:37PM 40.6087 -74.2408 236° Southwest 219 252 4,200 2,640 Climbing FlightAware ADS-B
04:38PM 40.6012 -74.2849 257° West 252 290 5,600 3,000 Climbing FlightAware ADS-B
04:38PM 40.5967 -74.3558 265° West 264 304 8,000 3,120 Climbing FlightAware ADS-B
04:39PM 40.5940 -74.4030 266° West 273 314 9,500 2,580 Climbing FlightAware
04:39PM 40.5910 -74.4590 266° West 287 330 10,700 1,920 Climbing FlightAware
04:40PM 40.5870 -74.5260 266° West 309 356 11,800 1,980 Climbing FlightAware
04:41PM 40.5830 -74.5960 266° West 328 377 13,200 2,520 Climbing FlightAware
04:41PM 40.5780 -74.6660 265° West 336 387 14,800 2,700 Climbing FlightAware
04:42PM 40.5740 -74.7400 266° West 345 397 16,400 2,520 Climbing FlightAware
04:42PM 40.5690 -74.8080 264° West 352 405 17,700 2,340 Climbing FlightAware
04:43PM 40.5640 -74.8840 265° West 360 414 19,100 2,220 Climbing FlightAware
04:43PM 40.5590 -74.9580 265° West 367 422 20,300 2,100 Climbing FlightAware
04:44PM 40.5510 -75.0220 261° West 378 435 21,300 1,740 Climbing FlightAware
04:44PM 40.5380 -75.0560 243° Southwest 392 451 21,600 1,560 Climbing FlightAware
04:45PM 40.5060 -75.1100 232° Southwest 401 461 22,500 1,800 Climbing FlightAware
04:45PM 40.4600 -75.1810 230° Southwest 411 473 23,700 1,740 Climbing FlightAware
04:46PM 40.4140 -75.2540 230° Southwest 423 487 24,700 1,680 Climbing FlightAware
04:46PM 40.3700 -75.3230 230° Southwest 431 496 25,700 1,740 Climbing FlightAware
04:47PM 40.3300 -75.3860 230° Southwest 436 502 26,700 1,740 Climbing FlightAware
04:48PM 40.2810 -75.4630 230° Southwest 440 506 27,800 1,260 Climbing FlightAware
04:48PM 40.2320 -75.5410 231° Southwest 459 528 28,300 1,020 Climbing FlightAware
04:49PM 40.1910 -75.6150 234° Southwest 467 537 29,000 1,320 Climbing FlightAware
04:49PM 40.1480 -75.7000 237° Southwest 473 544 29,800 1,620 Climbing FlightAware
04:50PM 40.1060 -75.7840 237° Southwest 472 543 30,900 1,740 Climbing FlightAware
04:51PM 40.0620 -75.8710 237° Southwest 469 540 31,900 1,740 Climbing FlightAware
04:51PM 40.0250 -75.9550 240° Southwest 466 536 33,000 1,800 Climbing FlightAware
04:52PM 39.9860 -76.0400 239° Southwest 464 534 34,000 1,380 Climbing FlightAware
04:52PM 39.9520 -76.1160 240° Southwest 469 540 34,600 1,140 Climbing FlightAware
04:53PM 39.9110 -76.2050 239° Southwest 472 543 35,300 1,140 Climbing FlightAware
04:54PM 39.8690 -76.2950 239° Southwest 476 548 36,000 900 Climbing FlightAware
04:54PM 39.8290 -76.3800 239° Southwest 484 557 36,400 660 Climbing FlightAware
04:55PM 39.7910 -76.4610 239° Southwest 488 562 36,800 780 Climbing FlightAware
04:55PM 39.7480 -76.5540 239° Southwest 493 567 37,300 720 Climbing FlightAware
04:56PM 39.7090 -76.6380 239° Southwest 497 572 37,700 540 Climbing FlightAware
04:56PM 39.6630 -76.7360 239° Southwest 499 574 38,000 240 Climbing FlightAware
04:57PM 39.6260 -76.8140 238° Southwest 499 574 38,000  Level FlightAware
04:58PM 39.5820 -76.9080 239° Southwest 499 574 38,000  Level FlightAware
04:58PM 39.5400 -76.9950 238° Southwest 501 577 38,000  Level FlightAware
04:59PM 39.4960 -77.0890 239° Southwest 501 577 38,000  Level FlightAware
04:59PM 39.4550 -77.1740 238° Southwest 503 579 38,000  Level FlightAware
05:00PM 39.4120 -77.2660 239° Southwest 503 579 38,000  Level FlightAware
05:01PM 39.3670 -77.3580 238° Southwest 504 580 38,000  Level FlightAware
05:01PM 39.3290 -77.4380 238° Southwest 503 579 38,000  Level FlightAware
05:02PM 39.2840 -77.5320 238° Southwest 504 580 38,000  Level FlightAware
05:02PM 39.2390 -77.6250 238° Southwest 504 580 38,000  Level FlightAware
05:03PM 39.2010 -77.7050 239° Southwest 505 581 38,000  Level FlightAware
05:03PM 39.1540 -77.8020 238° Southwest 506 582 38,000  Level FlightAware
05:04PM 39.1090 -77.8940 238° Southwest 506 582 38,000  Level FlightAware
05:05PM 39.0670 -77.9810 238° Southwest 506 582 38,000  Level FlightAware
05:05PM 39.0220 -78.0710 237° Southwest 505 581 38,000  Level FlightAware
05:06PM 38.9830 -78.1510 238° Southwest 504 580 38,000  Level FlightAware
05:06PM 38.9350 -78.2500 238° Southwest 503 579 38,000  Level FlightAware
05:07PM 38.8980 -78.3240 237° Southwest 502 578 38,000  Level FlightAware
05:08PM 38.8480 -78.4260 238° Southwest 500 575 38,000  Level FlightAware
05:08PM 38.8110 -78.5010 238° Southwest 499 574 38,000  Level FlightAware
05:09PM 38.7660 -78.5900 237° Southwest 499 574 38,000  Level FlightAware
05:09PM 38.7240 -78.6770 238° Southwest 499 574 38,000  Level FlightAware
05:10PM 38.6670 -78.7900 237° Southwest 499 574 38,000  Level FlightAware
05:11PM 38.6240 -78.8760 237° Southwest 498 573 38,000  Level FlightAware
05:11PM 38.5860 -78.9520 237° Southwest 498 573 38,000  Level FlightAware
05:12PM 38.5250 -79.0710 237° Southwest 498 573 38,000  Level FlightAware
05:12PM 38.4850 -79.1500 237° Southwest 498 573 38,000  Level FlightAware
05:13PM 38.4380 -79.2440 237° Southwest 496 571 38,000  Level FlightAware
05:14PM 38.3950 -79.3280 237° Southwest 494 568 38,000  Level FlightAware
05:14PM 38.3480 -79.4220 238° Southwest 492 566 38,000  Level FlightAware
05:15PM 38.3040 -79.5080 237° Southwest 491 565 38,000  Level FlightAware
05:15PM 38.2640 -79.5850 237° Southwest 490 564 38,000  Level FlightAware
05:16PM 38.2180 -79.6740 237° Southwest 488 562 38,000  Level FlightAware
05:17PM 38.1740 -79.7610 237° Southwest 487 560 38,000  Level FlightAware
05:17PM 38.1340 -79.8380 237° Southwest 485 558 38,000  Level FlightAware
05:18PM 38.0910 -79.9210 237° Southwest 485 558 38,000  Level FlightAware
05:18PM 38.0480 -80.0030 236° Southwest 484 557 38,000  Level FlightAware
05:19PM 38.0030 -80.0890 236° Southwest 484 557 38,000  Level FlightAware
05:19PM 37.9590 -80.1740 237° Southwest 482 555 38,000  Level FlightAware
05:20PM 37.9180 -80.2510 236° Southwest 482 555 38,000  Level FlightAware
05:21PM 37.8760 -80.3330 237° Southwest 481 554 38,000  Level FlightAware
05:21PM 37.8310 -80.4190 236° Southwest 481 554 38,000  Level FlightAware
05:22PM 37.7890 -80.4980 236° Southwest 480 552 38,000  Level FlightAware
05:23PM 37.7310 -80.6060 236° Southwest 479 551 38,000  Level FlightAware
05:23PM 37.6920 -80.6790 236° Southwest 479 551 38,000  Level FlightAware
05:24PM 37.6330 -80.7920 237° Southwest 477 549 38,000  Level FlightAware
05:24PM 37.5950 -80.8620 236° Southwest 477 549 38,000  Level FlightAware
05:25PM 37.5440 -80.9570 236° Southwest 477 549 38,000  Level FlightAware
05:26PM 37.5040 -81.0240 233° Southwest 479 551 38,000  Level FlightAware
05:26PM 37.4510 -81.1090 232° Southwest 478 550 38,000  Level FlightAware
05:27PM 37.4090 -81.1790 233° Southwest 478 550 38,000  Level FlightAware
05:27PM 37.3610 -81.2590 233° Southwest 477 549 38,000  Level FlightAware
05:28PM 37.3200 -81.3270 233° Southwest 475 547 38,000  Level FlightAware
05:29PM 37.2680 -81.4130 233° Southwest 475 547 38,000  Level FlightAware
05:29PM 37.2280 -81.4800 233° Southwest 475 547 38,000  Level FlightAware
05:30PM 37.1870 -81.5480 233° Southwest 475 547 38,000  Level FlightAware
05:30PM 37.1460 -81.6170 233° Southwest 475 547 38,000  Level FlightAware
05:31PM 37.1080 -81.6810 233° Southwest 475 547 38,000  Level FlightAware
05:32PM 37.0670 -81.7480 233° Southwest 475 547 38,000  Level FlightAware
05:32PM 37.0270 -81.8150 233° Southwest 475 547 38,000  Level FlightAware
05:33PM 36.9860 -81.8820 233° Southwest 475 547 38,000  Level FlightAware
05:33PM 36.9460 -81.9500 234° Southwest 475 547 38,000  Level FlightAware
05:33PM 36.8751 -82.0565 230° Southwest 464 534 38,000  Level FlightAware ADS-B
05:34PM 36.8317 -82.1271 232° Southwest 462 532 38,000  Level FlightAware ADS-B
05:35PM 36.8650 -82.0840 46° Northeast 475 547 38,000  Level FlightAware
05:35PM 36.8240 -82.1510 233° Southwest 475 547 38,000  Level FlightAware
05:36PM 36.7840 -82.2180 233° Southwest 475 547 38,000  Level FlightAware
05:36PM 36.7430 -82.2850 233° Southwest 475 547 38,000  Level FlightAware
05:37PM 36.7030 -82.3520 233° Southwest 475 547 38,000  Level FlightAware
05:38PM 36.6620 -82.4190 233° Southwest 475 547 38,000  Level FlightAware
05:39PM 36.4554 -82.7301 231° Southwest 462 532 38,000  Level FlightAware ADS-B
05:39PM 36.4157 -82.7933 232° Southwest 463 533 38,000  Level FlightAware ADS-B
05:40PM 36.3481 -82.9001 232° Southwest 463 533 38,000  Level FlightAware ADS-B
05:41PM 36.3046 -82.9689 232° Southwest 464 534 38,000  Level FlightAware ADS-B
05:41PM 36.2568 -83.0445 232° Southwest 464 534 38,000  Level FlightAware ADS-B
05:42PM 36.2168 -83.1073 232° Southwest 464 534 38,000  Level FlightAware ADS-B
05:43PM 36.1653 -83.1881 232° Southwest 464 534 38,000  Level FlightAware ADS-B
05:43PM 36.1095 -83.2754 232° Southwest 464 534 38,000  Level FlightAware ADS-B
05:44PM 36.0684 -83.3394 232° Southwest 464 534 38,000  Level FlightAware ADS-B
05:44PM 36.0272 -83.4037 232° Southwest 464 534 38,000  Level FlightAware ADS-B
05:45PM 35.9832 -83.4726 232° Southwest 464 534 38,000  Level FlightAware ADS-B
05:45PM 35.9383 -83.5421 231° Southwest 463 533 38,000  Level FlightAware ADS-B
05:46PM 35.8973 -83.6056 231° Southwest 463 533 38,000  Level FlightAware ADS-B
05:46PM 35.8571 -83.6680 232° Southwest 463 533 38,000  Level FlightAware ADS-B
05:47PM 35.8108 -83.7395 231° Southwest 463 533 38,000  Level FlightAware ADS-B
05:47PM 35.7689 -83.8041 231° Southwest 463 533 38,000  Level FlightAware ADS-B
05:48PM 35.7456 -83.8404 232° Southwest 462 532 38,000  Level FlightAware ADS-B
05:48PM 35.7085 -83.9098 237° Southwest 460 529 38,000  Level FlightAware ADS-B
05:49PM 35.6741 -83.9783 238° Southwest 459 528 38,000  Level FlightAware ADS-B
05:49PM 35.6383 -84.0503 239° Southwest 459 528 38,000  Level FlightAware ADS-B
05:50PM 35.6036 -84.1192 238° Southwest 459 528 38,000  Level FlightAware ADS-B
05:50PM 35.5707 -84.1860 239° Southwest 458 527 38,000  Level FlightAware ADS-B
05:51PM 35.5370 -84.2545 239° Southwest 458 527 38,000  Level FlightAware ADS-B
05:51PM 35.5042 -84.3222 239° Southwest 457 526 38,000  Level FlightAware ADS-B
05:52PM 35.4714 -84.3903 239° Southwest 456 525 38,000  Level FlightAware ADS-B
05:52PM 35.4414 -84.4512 239° Southwest 455 524 38,000  Level FlightAware ADS-B
05:53PM 35.4026 -84.5178 234° Southwest 455 524 38,000  Level FlightAware ADS-B
05:53PM 35.3598 -84.5802 230° Southwest 455 524 38,000  Level FlightAware ADS-B
05:54PM 35.3157 -84.6430 229° Southwest 456 525 38,000  Level FlightAware ADS-B
05:54PM 35.2740 -84.7024 229° Southwest 456 525 38,000  Level FlightAware ADS-B
05:55PM 35.2301 -84.7644 229° Southwest 457 526 38,000  Level FlightAware ADS-B
05:55PM 35.1887 -84.8229 229° Southwest 457 526 38,000  Level FlightAware ADS-B
05:56PM 35.1463 -84.8824 229° Southwest 457 526 38,000  Level FlightAware ADS-B
05:57PM 35.1042 -84.9415 229° Southwest 457 526 38,000  Level FlightAware ADS-B
05:57PM 35.0592 -85.0047 229° Southwest 458 527 38,000  Level FlightAware ADS-B
05:58PM 34.9770 -85.1200 229° Southwest 460 529 38,000  Level FlightAware
05:59PM 34.9230 -85.1950 229° Southwest 461 531 38,000  Level FlightAware
05:59PM 34.8840 -85.2490 229° Southwest 462 532 38,000  Level FlightAware
06:00PM 34.8290 -85.3260 229° Southwest 463 533 38,000  Level FlightAware
06:00PM 34.8146 -85.3461 229° Southwest 463 533 38,000 480 Level FlightAware ADS-B
06:01PM 34.7280 -85.4670 229° Southwest 461 531 38,600 660 Climbing FlightAware
06:01PM 34.7070 -85.4954 228° Southwest 461 531 38,900 900 Climbing FlightAware ADS-B
06:02PM 34.6300 -85.6020 229° Southwest 457 526 39,700 720 Climbing FlightAware
06:03PM 34.5800 -85.6710 229° Southwest 458 527 40,000 240 Climbing FlightAware
06:03PM 34.5390 -85.7270 228° Southwest 458 527 40,000  Level FlightAware
06:04PM 34.4850 -85.8010 228° Southwest 458 527 40,000  Level FlightAware
06:05PM 34.4310 -85.8750 229° Southwest 456 525 40,000  Level FlightAware
06:05PM 34.3830 -85.9400 228° Southwest 456 525 40,000  Level FlightAware
06:06PM 34.3420 -85.9960 228° Southwest 454 522 40,000  Level FlightAware
06:06PM 34.2900 -86.0670 228° Southwest 454 522 40,000  Level FlightAware
06:07PM 34.2430 -86.1310 228° Southwest 454 522 40,000  Level FlightAware
06:07PM 34.2010 -86.2030 235° Southwest 453 521 40,000  Level FlightAware
06:08PM 34.1470 -86.3190 241° Southwest 453 521 40,000  Level FlightAware
06:09PM 34.1100 -86.4030 242° Southwest 455 524 40,000  Level FlightAware
06:09PM 34.0800 -86.4740 243° Southwest 457 526 40,000  Level FlightAware
06:10PM 34.0460 -86.5530 243° Southwest 459 528 40,000  Level FlightAware
06:11PM 34.0130 -86.6300 243° Southwest 460 529 40,000  Level FlightAware
06:11PM 33.9770 -86.7120 242° Southwest 462 532 40,000  Level FlightAware
06:11PM 33.9596 -86.7534 243° Southwest 463 533 40,000  Level FlightAware ADS-B
06:12PM 33.8980 -86.8950 242° Southwest 463 533 40,000  Level FlightAware
06:13PM 33.8660 -86.9690 243° Southwest 463 533 40,000  Level FlightAware
06:14PM 33.8310 -87.0480 242° Southwest 464 534 40,000  Level FlightAware
06:14PM 33.7940 -87.1330 242° Southwest 465 535 40,000  Level FlightAware
06:15PM 33.7630 -87.2040 242° Southwest 465 535 40,000  Level FlightAware
06:15PM 33.7260 -87.2870 242° Southwest 467 537 40,000  Level FlightAware
06:16PM 33.6890 -87.3710 242° Southwest 468 539 40,000  Level FlightAware
06:17PM 33.6520 -87.4550 242° Southwest 468 539 40,000  Level FlightAware
06:17PM 33.6200 -87.5290 243° Southwest 468 539 40,000  Level FlightAware
06:18PM 33.5810 -87.6140 241° Southwest 469 540 40,000  Level FlightAware
06:18PM 33.5470 -87.6920 242° Southwest 470 541 40,000  Level FlightAware
06:19PM 33.5130 -87.7680 242° Southwest 470 541 40,000  Level FlightAware
06:19PM 33.4750 -87.8520 242° Southwest 470 541 40,000  Level FlightAware
06:20PM 33.4420 -87.9270 242° Southwest 470 541 40,000  Level FlightAware
06:21PM 33.4050 -88.0080 241° Southwest 471 542 40,000  Level FlightAware
06:21PM 33.3680 -88.0910 242° Southwest 471 542 40,000  Level FlightAware
06:22PM 33.3320 -88.1710 242° Southwest 470 541 40,000  Level FlightAware
06:22PM 33.2940 -88.2540 241° Southwest 470 541 40,000  Level FlightAware
06:23PM 33.2590 -88.3310 241° Southwest 470 541 40,000  Level FlightAware
06:24PM 33.2200 -88.4160 241° Southwest 469 540 40,000  Level FlightAware
06:24PM 33.1880 -88.4880 242° Southwest 469 540 40,000  Level FlightAware
06:25PM 33.1520 -88.5670 241° Southwest 469 540 40,000  Level FlightAware
06:25PM 33.1120 -88.6540 241° Southwest 468 539 40,000  Level FlightAware
06:26PM 33.0760 -88.7330 241° Southwest 468 539 40,000  Level FlightAware
06:26PM 33.0430 -88.8040 241° Southwest 468 539 40,000  Level FlightAware
06:27PM 33.0060 -88.8850 241° Southwest 468 539 40,000  Level FlightAware
06:28PM 32.9690 -88.9660 241° Southwest 467 537 40,000  Level FlightAware
06:28PM 32.9330 -89.0430 241° Southwest 467 537 40,000  Level FlightAware
06:29PM 32.9010 -89.1120 241° Southwest 466 536 40,000  Level FlightAware
06:29PM 32.8580 -89.2040 241° Southwest 465 535 40,000  Level FlightAware
06:30PM 32.8230 -89.2800 241° Southwest 466 536 40,000  Level FlightAware
06:30PM 32.7870 -89.3560 241° Southwest 466 536 40,000  Level FlightAware
06:31PM 32.7490 -89.4380 241° Southwest 466 536 40,000  Level FlightAware
06:32PM 32.7050 -89.5310 241° Southwest 467 537 40,000  Level FlightAware
06:32PM 32.6730 -89.5990 241° Southwest 468 539 40,000  Level FlightAware
06:33PM 32.6370 -89.6740 240° Southwest 468 539 40,000  Level FlightAware
06:34PM 32.5920 -89.7690 241° Southwest 468 539 40,000  Level FlightAware
06:34PM 32.5590 -89.8370 240° Southwest 468 539 40,000  Level FlightAware
06:35PM 32.5260 -89.9050 240° Southwest 468 539 40,000  Level FlightAware
06:35PM 32.4930 -89.9730 240° Southwest 468 539 40,000  Level FlightAware
06:36PM 32.4600 -90.0410 240° Southwest 468 539 40,000  Level FlightAware
06:37PM 32.4270 -90.1090 240° Southwest 468 539 40,000  Level FlightAware
06:37PM 32.3920 -90.1790 239° Southwest 468 539 40,000  Level FlightAware
06:38PM 32.3590 -90.2470 240° Southwest 468 539 40,000  Level FlightAware
06:38PM 32.3260 -90.3150 240° Southwest 468 539 40,000  Level FlightAware
06:39PM 32.2950 -90.3790 240° Southwest 468 539 40,000  Level FlightAware
06:40PM 32.2620 -90.4470 240° Southwest 468 539 40,000  Level FlightAware
06:40PM 32.2290 -90.5150 240° Southwest 468 539 40,000  Level FlightAware
06:41PM 32.1960 -90.5830 240° Southwest 468 539 40,000  Level FlightAware
06:41PM 32.1620 -90.6510 239° Southwest 468 539 40,000  Level FlightAware
06:42PM 32.1290 -90.7180 240° Southwest 468 539 40,000  Level FlightAware
06:43PM 32.0960 -90.7860 240° Southwest 468 539 40,000  Level FlightAware
06:48PM 31.6846 -91.6428 241° Southwest 452 520 40,000  Level FlightAware ADS-B
06:49PM 31.6100 -91.7986 241° Southwest 447 514 40,000  Level Houston Center
06:50PM 31.5486 -91.9239 240° Southwest 443 510 40,000  Level Houston Center
06:56PM 31.1775 -92.6374 240° Southwest 437 503 40,000  Level FlightAware ADS-B
06:57PM 31.1147 -92.7490 237° Southwest 435 501 40,000 -120 Level FlightAware ADS-B
06:57PM 31.0805 -92.8101 237° Southwest 433 498 39,900 -960 Descending FlightAware ADS-B
06:59PM 31.0022 -92.9500 237° Southwest 431 496 38,400 -1,140 Descending FlightAware ADS-B
06:59PM 30.9760 -92.9970 237° Southwest 429 494 38,000 -1,020 Descending FlightAware
06:59PM 30.9500 -93.0427 236° Southwest 425 489 37,600 -1,260 Descending FlightAware ADS-B
07:00PM 30.9166 -93.1023 237° Southwest 425 489 37,000 -1,440 Descending FlightAware ADS-B
07:01PM 30.8771 -93.1720 237° Southwest 427 491 36,000 -1,980 Descending FlightAware ADS-B
07:01PM 30.8189 -93.2746 237° Southwest 444 511 34,100 -2,580 Descending FlightAware ADS-B
07:02PM 30.7832 -93.3378 237° Southwest 451 519 32,500 -2,940 Descending FlightAware ADS-B
07:02PM 30.7456 -93.4037 236° Southwest 455 524 31,000 -2,580 Descending FlightAware ADS-B
07:03PM 30.7070 -93.4717 237° Southwest 450 518 29,700 -2,340 Descending FlightAware ADS-B
07:04PM 30.6688 -93.5383 236° Southwest 448 516 28,400 -2,100 Descending FlightAware ADS-B
07:04PM 30.6317 -93.6034 236° Southwest 440 506 27,400 -2,160 Descending FlightAware ADS-B
07:05PM 30.5832 -93.6883 236° Southwest 433 498 25,700 5,520 Descending FlightAware ADS-B
07:06PM 30.5940 -93.6790 37° Northeast 427 491 36,500 7,080 Climbing FlightAware
07:06PM 30.5600 -93.7400 237° Southwest 427 491 36,500  Level FlightAware
07:07PM 30.5270 -93.7990 237° Southwest 427 491 36,500 -13,380 Level FlightAware
07:08PM 30.4042 -93.9999 235° Southwest 404 465 19,400 -15,420 Descending FlightAware ADS-B
07:08PM 30.3733 -94.0535 236° Southwest 400 460 18,300 -2,220 Descending FlightAware ADS-B
07:09PM 30.3425 -94.1067 236° Southwest 397 457 17,200 -2,220 Descending FlightAware ADS-B
07:09PM 30.3120 -94.1595 236° Southwest 392 451 16,100 -2,220 Descending FlightAware ADS-B
07:10PM 30.2811 -94.2129 236° Southwest 387 445 15,000 -2,280 Descending FlightAware ADS-B
07:10PM 30.2514 -94.2641 236° Southwest 384 442 13,800 -2,280 Descending FlightAware ADS-B
07:11PM 30.2217 -94.3153 236° Southwest 373 429 12,700 -2,040 Descending FlightAware ADS-B
07:11PM 30.2081 -94.3389 236° Southwest 366 421 12,300 -1,680 Descending FlightAware ADS-B
07:11PM 30.2016 -94.3521 240° Southwest 364 419 12,100 -1,020 Descending FlightAware ADS-B
07:11PM 30.1944 -94.3700 245° Southwest 359 413 12,000 -240 Descending FlightAware ADS-B
07:11PM 30.1861 -94.3997 252° West 354 407 12,000  Level FlightAware ADS-B
07:12PM 30.1786 -94.4383 257° West 355 409 12,000 -600 Level FlightAware ADS-B
07:12PM 30.1693 -94.4946 259° West 351 404 11,500 -1,500 Descending FlightAware ADS-B
07:13PM 30.1588 -94.5580 259° West 347 399 10,400 -1,560 Descending FlightAware ADS-B
07:13PM 30.1517 -94.6019 259° West 336 387 10,000 -780 Descending FlightAware ADS-B
07:14PM 30.1472 -94.6284 259° West 322 371 9,900 -420 Descending FlightAware ADS-B
07:14PM 30.1427 -94.6538 258° West 313 360 9,800 -780 Descending FlightAware ADS-B
07:14PM 30.1384 -94.6788 259° West 307 353 9,500 -1,200 Descending FlightAware ADS-B
07:14PM 30.1343 -94.7030 259° West 303 349 9,200 -1,140 Descending FlightAware ADS-B
07:15PM 30.1296 -94.7288 258° West 299 344 8,900 -1,140 Descending FlightAware ADS-B
07:15PM 30.1255 -94.7528 259° West 296 341 8,600 -1,440 Descending FlightAware ADS-B
07:15PM 30.1214 -94.7758 258° West 294 338 8,200 -1,620 Descending FlightAware ADS-B
07:15PM 30.1175 -94.7990 259° West 294 338 7,800 -1,440 Descending FlightAware ADS-B
07:16PM 30.1084 -94.8523 259° West 295 339 7,000 -1,440 Descending FlightAware ADS-B
07:16PM 30.1042 -94.8762 259° West 293 337 6,600 -1,440 Descending FlightAware ADS-B
07:16PM 30.1015 -94.8925 259° West 293 337 6,400 -1,380 Descending FlightAware ADS-B
07:17PM 30.1003 -94.9026 262° West 293 337 6,200 -1,440 Descending FlightAware ADS-B
07:17PM 30.0994 -94.9133 264° West 293 337 6,100 -720 Descending FlightAware ADS-B
07:17PM 30.0989 -94.9318 268° West 290 334 6,000 -240 Descending FlightAware ADS-B
07:17PM 30.0989 -94.9555 270° West 293 337 6,000  Level FlightAware ADS-B
07:17PM 30.0989 -94.9799 270° West 292 336 6,000  Level FlightAware ADS-B
07:18PM 30.0991 -95.0041 271° West 291 335 6,000  Level FlightAware ADS-B
07:18PM 30.0993 -95.0288 271° West 291 335 6,000  Level FlightAware ADS-B
07:18PM 30.0994 -95.0525 270° West 292 336 6,000  Level FlightAware ADS-B
07:18PM 30.0996 -95.0783 271° West 294 338 6,000  Level FlightAware ADS-B
07:19PM 30.0996 -95.1030 270° West 292 336 6,000  Level FlightAware ADS-B
07:19PM 30.0998 -95.1265 271° West 291 335 6,000  Level FlightAware ADS-B
07:19PM 30.1000 -95.1514 271° West 292 336 6,000  Level FlightAware ADS-B
07:19PM 30.1000 -95.1770 270° West 292 336 6,000  Level FlightAware ADS-B
07:20PM 30.1000 -95.2003 270° West 291 335 6,000  Level FlightAware ADS-B
07:20PM 30.1001 -95.2242 270° West 292 336 6,000  Level FlightAware ADS-B
07:20PM 30.1001 -95.2479 270° West 293 337 6,000  Level FlightAware ADS-B
07:20PM 30.1001 -95.2716 270° West 290 334 6,000  Level FlightAware ADS-B
07:21PM 30.1003 -95.3203 271° West 294 338 6,000  Level FlightAware ADS-B
07:21PM 30.1003 -95.3462 270° West 292 336 6,000 -240 Level FlightAware ADS-B
07:22PM 30.1003 -95.3701 270° West 291 335 5,900 -780 Descending FlightAware ADS-B
07:22PM 30.1005 -95.3945 271° West 288 331 5,600 -1,380 Descending FlightAware ADS-B
07:22PM 30.1005 -95.4184 270° West 286 329 5,200 -1,440 Descending FlightAware ADS-B
07:22PM 30.1003 -95.4336 269° West 285 328 5,000 -1,440 Descending FlightAware ADS-B
07:22PM 30.1000 -95.4388 266° West 283 326 4,900 -1,380 Descending FlightAware ADS-B
07:23PM 30.0888 -95.4836 254° West 275 316 4,200 -1,440 Descending FlightAware ADS-B
07:23PM 30.0807 -95.5092 250° West 270 311 3,700 -1,620 Descending FlightAware ADS-B
07:23PM 30.0763 -95.5183 241° Southwest 259 298 3,500 -1,320 Descending FlightAware ADS-B
07:23PM 30.0704 -95.5256 227° Southwest 252 290 3,400 -600 Descending FlightAware ADS-B
07:23PM 30.0672 -95.5284 217° Southwest 243 280 3,400 -780 Level FlightAware ADS-B
07:23PM 30.0634 -95.5308 209° Southwest 237 273 3,300 -1,140 Descending FlightAware ADS-B
07:24PM 30.0562 -95.5339 200° South 227 261 3,200 -1,200 Descending FlightAware ADS-B
07:24PM 30.0479 -95.5349 186° South 218 251 3,000 -960 Descending FlightAware ADS-B
07:24PM 30.0431 -95.5344 175° South 212 244 3,000  Level FlightAware ADS-B
07:24PM 30.0349 -95.5329 171° South 203 234 3,000  Level FlightAware ADS-B
07:24PM 30.0249 -95.5302 167° South 194 223 3,000  Level FlightAware ADS-B
07:24PM 30.0121 -95.5268 167° South 181 208 3,000  Level FlightAware ADS-B
07:24PM 30.0083 -95.5256 165° South 178 205 3,000  Level FlightAware ADS-B
07:25PM 30.0059 -95.5244 157° South 175 201 3,000  Level FlightAware ADS-B
07:25PM 30.0005 -95.5200 145° Southeast 167 192 3,000 -420 Level FlightAware ADS-B
07:25PM 29.9968 -95.5148 129° Southeast 170 196 2,900 -840 Descending FlightAware ADS-B
07:25PM 29.9937 -95.5096 125° Southeast 174 200 2,800 -1,440 Descending FlightAware ADS-B
07:25PM 29.9908 -95.5047 124° Southeast 176 203 2,600 -1,800 Descending FlightAware ADS-B
07:25PM 29.9892 -95.5014 119° Southeast 178 205 2,500 -1,200 Descending FlightAware ADS-B
07:25PM 29.9875 -95.4959 110° East 176 203 2,400 -1,380 Descending FlightAware ADS-B
07:25PM 29.9863 -95.4846 97° East 175 201 2,100 -1,260 Descending FlightAware ADS-B
07:26PM 29.9865 -95.4647 89° East 176 203 1,700 -960 Descending FlightAware ADS-B
07:26PM 29.9867 -95.4384 89° East 144 166 1,300 -840 Descending FlightAware ADS-B
07:26PM 29.9867 -95.4275 90° East 133 153 1,100 -660 Descending FlightAware ADS-B
07:27PM 29.9868 -95.4184 89° East 130 150 1,000 -660 Descending FlightAware ADS-B
07:27PM 29.9869 -95.4077 89° East 126 145 800 -780 Descending FlightAware ADS-B
07:27PM 29.9869 -95.3970 90° East 121 139 600 -720 Descending FlightAware ADS-B
07:27PM 29.9869 -95.3909 90° East 123 142 500 -660 Descending FlightAware ADS-B
07:28PM 29.9869 -95.3849 90° East 129 148 400 -720 Descending FlightAware ADS-B
07:28PM 29.9868 -95.3783 91° East 133 153 300 -360 Descending FlightAware ADS-B
07:28PM 29.9869 -95.3729 89° East 133 153 300 -480 Level FlightAware ADS-B
07:28PM 29.9869 -95.3603 90° East 130 150 100 -720 Descending FlightAware ADS-B